sensor_id;sensor_type;location;lat;lon;timestamp;P1;P2;P0
54021;PMS7003;39936;51.058;17.220;2023-02-07T00:00:33;94;69;43
54021;PMS7003;39936;51.058;17.220;2023-02-07T00:04:22;103;78;46
54021;PMS7003;39936;51.058;17.220;2023-02-07T00:07:55;97;76;44
54021;PMS7003;39936;51.058;17.220;2023-02-07T00:11:32;95;74;44
54021;PMS7003;39936;51.058;17.220;2023-02-07T00:15:24;94;70;43
54021;PMS7003;39936;51.058;17.220;2023-02-07T00:18:35;108;83;50
54021;PMS7003;39936;51.058;17.220;2023-02-07T00:22:18;109;89;55
54021;PMS7003;39936;51.058;17.220;2023-02-07T00:25:58;101;83;48
54021;PMS7003;39936;51.058;17.220;2023-02-07T00:29:11;100;77;47
54021;PMS7003;39936;51.058;17.220;2023-02-07T00:32:43;97;71;43
54021;PMS7003;39936;51.058;17.220;2023-02-07T00:36:09;95;74;44
54021;PMS7003;39936;51.058;17.220;2023-02-07T00:39:47;93;73;43
54021;PMS7003;39936;51.058;17.220;2023-02-07T00:43:23;98;73;44
54021;PMS7003;39936;51.058;17.220;2023-02-07T00:47:01;98;75;44
54021;PMS7003;39936;51.058;17.220;2023-02-07T00:50:38;86;67;39
54021;PMS7003;39936;51.058;17.220;2023-02-07T00:54:20;90;67;42
54021;PMS7003;39936;51.058;17.220;2023-02-07T00:57:32;101;80;49
54021;PMS7003;39936;51.058;17.220;2023-02-07T01:01:11;99;76;46
54021;PMS7003;39936;51.058;17.220;2023-02-07T01:04:22;96;77;44
54021;PMS7003;39936;51.058;17.220;2023-02-07T01:07:40;100;73;46
54021;PMS7003;39936;51.058;17.220;2023-02-07T01:10:56;95;72;46
54021;PMS7003;39936;51.058;17.220;2023-02-07T01:14:15;95;70;44
54021;PMS7003;39936;51.058;17.220;2023-02-07T01:17:23;102;74;44
54021;PMS7003;39936;51.058;17.220;2023-02-07T01:20:36;97;73;45
54021;PMS7003;39936;51.058;17.220;2023-02-07T01:23:49;95;72;46
54021;PMS7003;39936;51.058;17.220;2023-02-07T01:27:30;95;76;45
54021;PMS7003;39936;51.058;17.220;2023-02-07T01:30:43;103;75;45
54021;PMS7003;39936;51.058;17.220;2023-02-07T01:34:16;102;76;46
54021;PMS7003;39936;51.058;17.220;2023-02-07T01:37:54;102;80;47
54021;PMS7003;39936;51.058;17.220;2023-02-07T01:41:36;100;76;46
54021;PMS7003;39936;51.058;17.220;2023-02-07T01:45:37;105;83;48
54021;PMS7003;39936;51.058;17.220;2023-02-07T01:48:48;106;82;47
54021;PMS7003;39936;51.058;17.220;2023-02-07T01:55:35;98;77;45
54021;PMS7003;39936;51.058;17.220;2023-02-07T01:58:50;93;70;44
54021;PMS7003;39936;51.058;17.220;2023-02-07T02:02:03;92;68;40
54021;PMS7003;39936;51.058;17.220;2023-02-07T02:05:17;98;77;45
54021;PMS7003;39936;51.058;17.220;2023-02-07T02:08:58;99;75;47
54021;PMS7003;39936;51.058;17.220;2023-02-07T02:12:41;99;76;46
54021;PMS7003;39936;51.058;17.220;2023-02-07T02:16:15;101;79;47
54021;PMS7003;39936;51.058;17.220;2023-02-07T02:37:26;102;81;48
54021;PMS7003;39936;51.058;17.220;2023-02-07T02:41:05;105;79;48
54021;PMS7003;39936;51.058;17.220;2023-02-07T02:44:52;107;84;50
54021;PMS7003;39936;51.058;17.220;2023-02-07T02:48:28;118;95;56
54021;PMS7003;39936;51.058;17.220;2023-02-07T02:51:42;108;84;51
54021;PMS7003;39936;51.058;17.220;2023-02-07T02:55:00;101;79;45
54021;PMS7003;39936;51.058;17.220;2023-02-07T03:09:04;104;79;49
54021;PMS7003;39936;51.058;17.220;2023-02-07T03:19:22;99;76;46
54021;PMS7003;39936;51.058;17.220;2023-02-07T03:23:12;96;75;47
54021;PMS7003;39936;51.058;17.220;2023-02-07T03:26:30;98;76;44
54021;PMS7003;39936;51.058;17.220;2023-02-07T03:29:45;103;83;49
54021;PMS7003;39936;51.058;17.220;2023-02-07T03:33:29;103;83;48
54021;PMS7003;39936;51.058;17.220;2023-02-07T03:40:19;96;72;45
54021;PMS7003;39936;51.058;17.220;2023-02-07T03:43:38;94;71;43
54021;PMS7003;39936;51.058;17.220;2023-02-07T03:46:50;99;74;45
54021;PMS7003;39936;51.058;17.220;2023-02-07T03:50:22;93;71;42
54021;PMS7003;39936;51.058;17.220;2023-02-07T03:53:43;95;70;46
54021;PMS7003;39936;51.058;17.220;2023-02-07T03:57:12;100;75;46
54021;PMS7003;39936;51.058;17.220;2023-02-07T04:00:23;93;69;46
54021;PMS7003;39936;51.058;17.220;2023-02-07T04:04:00;95;70;43
54021;PMS7003;39936;51.058;17.220;2023-02-07T04:07:52;92;69;44
54021;PMS7003;39936;51.058;17.220;2023-02-07T04:11:58;88;68;42
54021;PMS7003;39936;51.058;17.220;2023-02-07T04:15:53;92;71;45
54021;PMS7003;39936;51.058;17.220;2023-02-07T04:19:06;91;70;46
54021;PMS7003;39936;51.058;17.220;2023-02-07T04:22:23;98;77;46
54021;PMS7003;39936;51.058;17.220;2023-02-07T04:26:04;95;71;42
54021;PMS7003;39936;51.058;17.220;2023-02-07T04:29:22;97;72;43
54021;PMS7003;39936;51.058;17.220;2023-02-07T04:32:42;95;69;44
54021;PMS7003;39936;51.058;17.220;2023-02-07T04:36:25;90;69;44
54021;PMS7003;39936;51.058;17.220;2023-02-07T04:40:25;84;68;43
54021;PMS7003;39936;51.058;17.220;2023-02-07T04:43:43;93;70;44
54021;PMS7003;39936;51.058;17.220;2023-02-07T04:46:51;96;71;45
54021;PMS7003;39936;51.058;17.220;2023-02-07T04:50:07;95;74;45
54021;PMS7003;39936;51.058;17.220;2023-02-07T04:53:17;99;73;44
54021;PMS7003;39936;51.058;17.220;2023-02-07T04:56:28;91;70;42
54021;PMS7003;39936;51.058;17.220;2023-02-07T04:59:44;88;65;42
54021;PMS7003;39936;51.058;17.220;2023-02-07T05:03:16;95;69;44
54021;PMS7003;39936;51.058;17.220;2023-02-07T05:06:50;86;66;43
54021;PMS7003;39936;51.058;17.220;2023-02-07T05:10:30;92;69;44
54021;PMS7003;39936;51.058;17.220;2023-02-07T05:13:57;95;73;43
54021;PMS7003;39936;51.058;17.220;2023-02-07T05:17:53;94;73;45
54021;PMS7003;39936;51.058;17.220;2023-02-07T05:21:28;89;66;41
54021;PMS7003;39936;51.058;17.220;2023-02-07T05:24:39;92;72;43
54021;PMS7003;39936;51.058;17.220;2023-02-07T05:27:54;92;68;42
54021;PMS7003;39936;51.058;17.220;2023-02-07T05:31:31;97;74;45
54021;PMS7003;39936;51.058;17.220;2023-02-07T05:35:24;90;64;40
54021;PMS7003;39936;51.058;17.220;2023-02-07T05:38:55;92;68;43
54021;PMS7003;39936;51.058;17.220;2023-02-07T05:42:22;106;82;50
54021;PMS7003;39936;51.058;17.220;2023-02-07T05:46:02;128;102;58
54021;PMS7003;39936;51.058;17.220;2023-02-07T05:49:11;122;99;60
54021;PMS7003;39936;51.058;17.220;2023-02-07T05:52:29;127;100;56
54021;PMS7003;39936;51.058;17.220;2023-02-07T05:56:02;137;111;64
54021;PMS7003;39936;51.058;17.220;2023-02-07T05:59:30;124;97;56
54021;PMS7003;39936;51.058;17.220;2023-02-07T06:02:51;127;99;56
54021;PMS7003;39936;51.058;17.220;2023-02-07T06:06:14;120;94;55
54021;PMS7003;39936;51.058;17.220;2023-02-07T06:09:54;110;87;51
54021;PMS7003;39936;51.058;17.220;2023-02-07T06:13:06;95;74;45
54021;PMS7003;39936;51.058;17.220;2023-02-07T06:16:42;99;75;46
54021;PMS7003;39936;51.058;17.220;2023-02-07T06:20:08;89;67;38
54021;PMS7003;39936;51.058;17.220;2023-02-07T06:23:26;93;69;42
54021;PMS7003;39936;51.058;17.220;2023-02-07T06:26:42;91;68;42
54021;PMS7003;39936;51.058;17.220;2023-02-07T06:30:08;101;71;44
54021;PMS7003;39936;51.058;17.220;2023-02-07T06:33:38;99;74;45
54021;PMS7003;39936;51.058;17.220;2023-02-07T06:36:45;102;77;47
54021;PMS7003;39936;51.058;17.220;2023-02-07T06:40:00;95;73;42
54021;PMS7003;39936;51.058;17.220;2023-02-07T06:43:16;104;78;45
54021;PMS7003;39936;51.058;17.220;2023-02-07T06:46:45;96;71;44
54021;PMS7003;39936;51.058;17.220;2023-02-07T06:49:55;112;86;49
54021;PMS7003;39936;51.058;17.220;2023-02-07T06:53:11;118;93;55
54021;PMS7003;39936;51.058;17.220;2023-02-07T06:56:24;104;78;45
54021;PMS7003;39936;51.058;17.220;2023-02-07T06:59:39;115;95;57
54021;PMS7003;39936;51.058;17.220;2023-02-07T07:03:08;133;107;63
54021;PMS7003;39936;51.058;17.220;2023-02-07T07:06:26;103;91;56
54021;PMS7003;39936;51.058;17.220;2023-02-07T07:09:38;92;65;21
54021;PMS7003;39936;51.058;17.220;2023-02-07T07:13:01;112;91;52
54021;PMS7003;39936;51.058;17.220;2023-02-07T07:16:29;115;90;55
54021;PMS7003;39936;51.058;17.220;2023-02-07T07:19:40;116;94;55
54021;PMS7003;39936;51.058;17.220;2023-02-07T07:23:10;109;92;53
54021;PMS7003;39936;51.058;17.220;2023-02-07T07:26:17;114;95;55
54021;PMS7003;39936;51.058;17.220;2023-02-07T07:29:32;115;96;58
54021;PMS7003;39936;51.058;17.220;2023-02-07T07:32:40;108;83;53
54021;PMS7003;39936;51.058;17.220;2023-02-07T07:35:55;121;91;55
54021;PMS7003;39936;51.058;17.220;2023-02-07T07:39:12;114;87;50
54021;PMS7003;39936;51.058;17.220;2023-02-07T07:42:59;108;82;48
54021;PMS7003;39936;51.058;17.220;2023-02-07T07:46:32;100;77;42
54021;PMS7003;39936;51.058;17.220;2023-02-07T07:49:48;104;79;46
54021;PMS7003;39936;51.058;17.220;2023-02-07T07:53:34;103;78;44
54021;PMS7003;39936;51.058;17.220;2023-02-07T07:57:23;100;76;45
54021;PMS7003;39936;51.058;17.220;2023-02-07T08:00:38;101;78;47
54021;PMS7003;39936;51.058;17.220;2023-02-07T08:04:13;105;80;48
54021;PMS7003;39936;51.058;17.220;2023-02-07T08:07:27;110;85;49
54021;PMS7003;39936;51.058;17.220;2023-02-07T08:10:41;116;88;53
54021;PMS7003;39936;51.058;17.220;2023-02-07T08:13:53;102;79;47
54021;PMS7003;39936;51.058;17.220;2023-02-07T08:17:01;98;78;48
54021;PMS7003;39936;51.058;17.220;2023-02-07T08:20:16;98;73;46
54021;PMS7003;39936;51.058;17.220;2023-02-07T08:23:43;102;80;46
54021;PMS7003;39936;51.058;17.220;2023-02-07T08:26:59;101;75;46
54021;PMS7003;39936;51.058;17.220;2023-02-07T08:30:19;99;76;46
54021;PMS7003;39936;51.058;17.220;2023-02-07T08:33:52;90;65;40
54021;PMS7003;39936;51.058;17.220;2023-02-07T08:37:46;100;75;45
54021;PMS7003;39936;51.058;17.220;2023-02-07T08:41:04;105;81;47
54021;PMS7003;39936;51.058;17.220;2023-02-07T08:44:16;105;82;48
54021;PMS7003;39936;51.058;17.220;2023-02-07T08:47:28;99;73;43
54021;PMS7003;39936;51.058;17.220;2023-02-07T08:50:35;102;73;44
54021;PMS7003;39936;51.058;17.220;2023-02-07T08:53:50;87;66;41
54021;PMS7003;39936;51.058;17.220;2023-02-07T08:57:04;93;67;43
54021;PMS7003;39936;51.058;17.220;2023-02-07T09:00:20;90;66;41
54021;PMS7003;39936;51.058;17.220;2023-02-07T09:03:56;95;70;41
54021;PMS7003;39936;51.058;17.220;2023-02-07T09:07:08;91;68;42
54021;PMS7003;39936;51.058;17.220;2023-02-07T09:10:17;88;67;43
54021;PMS7003;39936;51.058;17.220;2023-02-07T09:13:33;93;67;43
54021;PMS7003;39936;51.058;17.220;2023-02-07T09:16:45;86;63;39
54021;PMS7003;39936;51.058;17.220;2023-02-07T09:20:02;84;60;37
54021;PMS7003;39936;51.058;17.220;2023-02-07T09:23:35;70;53;36
54021;PMS7003;39936;51.058;17.220;2023-02-07T09:27:13;82;60;37
54021;PMS7003;39936;51.058;17.220;2023-02-07T09:30:24;77;56;34
54021;PMS7003;39936;51.058;17.220;2023-02-07T09:33:41;72;55;34
54021;PMS7003;39936;51.058;17.220;2023-02-07T09:36:53;79;60;37
54021;PMS7003;39936;51.058;17.220;2023-02-07T09:40:28;81;60;39
54021;PMS7003;39936;51.058;17.220;2023-02-07T09:47:28;82;62;40
54021;PMS7003;39936;51.058;17.220;2023-02-07T09:54:06;61;48;30
54021;PMS7003;39936;51.058;17.220;2023-02-07T09:57:29;67;52;31
54021;PMS7003;39936;51.058;17.220;2023-02-07T10:00:58;59;44;28
54021;PMS7003;39936;51.058;17.220;2023-02-07T10:08:03;66;50;29
54021;PMS7003;39936;51.058;17.220;2023-02-07T10:21:55;43;34;21
54021;PMS7003;39936;51.058;17.220;2023-02-07T10:32:42;46;34;21
54021;PMS7003;39936;51.058;17.220;2023-02-07T10:36:15;46;34;23
54021;PMS7003;39936;51.058;17.220;2023-02-07T10:39:23;35;27;17
54021;PMS7003;39936;51.058;17.220;2023-02-07T10:42:39;21;16;10
54021;PMS7003;39936;51.058;17.220;2023-02-07T10:45:52;26;20;13
54021;PMS7003;39936;51.058;17.220;2023-02-07T10:49:01;35;26;15
54021;PMS7003;39936;51.058;17.220;2023-02-07T10:52:35;33;25;16
54021;PMS7003;39936;51.058;17.220;2023-02-07T10:55:48;26;23;15
54021;PMS7003;39936;51.058;17.220;2023-02-07T11:02:37;32;29;16
54021;PMS7003;39936;51.058;17.220;2023-02-07T11:05:59;36;32;18
54021;PMS7003;39936;51.058;17.220;2023-02-07T11:09:18;31;25;15
54021;PMS7003;39936;51.058;17.220;2023-02-07T11:12:45;40;34;21
54021;PMS7003;39936;51.058;17.220;2023-02-07T11:16:00;51;36;21
54021;PMS7003;39936;51.058;17.220;2023-02-07T11:19:29;41;32;20
54021;PMS7003;39936;51.058;17.220;2023-02-07T11:22:41;36;29;17
54021;PMS7003;39936;51.058;17.220;2023-02-07T11:25:47;27;22;14
54021;PMS7003;39936;51.058;17.220;2023-02-07T11:29:04;27;23;15
54021;PMS7003;39936;51.058;17.220;2023-02-07T11:32:19;26;20;13
54021;PMS7003;39936;51.058;17.220;2023-02-07T11:39:35;33;23;17
54021;PMS7003;39936;51.058;17.220;2023-02-07T11:46:38;31;28;16
54021;PMS7003;39936;51.058;17.220;2023-02-07T12:06:40;28;22;12
54021;PMS7003;39936;51.058;17.220;2023-02-07T12:09:57;26;23;14
54021;PMS7003;39936;51.058;17.220;2023-02-07T12:13:11;28;22;13
54021;PMS7003;39936;51.058;17.220;2023-02-07T12:27:01;32;25;17
54021;PMS7003;39936;51.058;17.220;2023-02-07T12:33:55;32;25;12
54021;PMS7003;39936;51.058;17.220;2023-02-07T12:40:31;39;33;17
54021;PMS7003;39936;51.058;17.220;2023-02-07T12:43:49;29;25;16
54021;PMS7003;39936;51.058;17.220;2023-02-07T12:50:38;36;28;17
54021;PMS7003;39936;51.058;17.220;2023-02-07T12:53:57;29;26;16
54021;PMS7003;39936;51.058;17.220;2023-02-07T13:00:32;26;20;14
54021;PMS7003;39936;51.058;17.220;2023-02-07T13:21:29;14;13;8
54021;PMS7003;39936;51.058;17.220;2023-02-07T13:24:50;29;25;15
54021;PMS7003;39936;51.058;17.220;2023-02-07T13:28:02;27;25;15
54021;PMS7003;39936;51.058;17.220;2023-02-07T13:35:25;23;20;12
54021;PMS7003;39936;51.058;17.220;2023-02-07T13:39:40;24;21;12
54021;PMS7003;39936;51.058;17.220;2023-02-07T13:49:42;25;19;14
54021;PMS7003;39936;51.058;17.220;2023-02-07T13:53:02;22;18;11
54021;PMS7003;39936;51.058;17.220;2023-02-07T13:56:19;21;17;11
54021;PMS7003;39936;51.058;17.220;2023-02-07T14:03:35;28;24;12
54021;PMS7003;39936;51.058;17.220;2023-02-07T14:13:37;33;24;13
54021;PMS7003;39936;51.058;17.220;2023-02-07T14:17:14;31;22;15
54021;PMS7003;39936;51.058;17.220;2023-02-07T14:24:19;28;23;14
54021;PMS7003;39936;51.058;17.220;2023-02-07T14:27:38;18;15;9
54021;PMS7003;39936;51.058;17.220;2023-02-07T14:31:16;28;23;12
54021;PMS7003;39936;51.058;17.220;2023-02-07T14:39:26;35;27;16
54021;PMS7003;39936;51.058;17.220;2023-02-07T14:46:26;29;22;14
54021;PMS7003;39936;51.058;17.220;2023-02-07T14:50:07;30;23;14
54021;PMS7003;39936;51.058;17.220;2023-02-07T14:53:39;37;30;19
54021;PMS7003;39936;51.058;17.220;2023-02-07T15:00:21;32;25;14
54021;PMS7003;39936;51.058;17.220;2023-02-07T15:03:36;30;24;16
54021;PMS7003;39936;51.058;17.220;2023-02-07T15:06:45;34;25;16
54021;PMS7003;39936;51.058;17.220;2023-02-07T15:09:56;24;21;15
54021;PMS7003;39936;51.058;17.220;2023-02-07T15:16:31;24;21;13
54021;PMS7003;39936;51.058;17.220;2023-02-07T15:19:49;24;19;12
54021;PMS7003;39936;51.058;17.220;2023-02-07T15:23:27;28;20;13
54021;PMS7003;39936;51.058;17.220;2023-02-07T15:26:57;25;19;12
54021;PMS7003;39936;51.058;17.220;2023-02-07T15:30:39;29;22;13
54021;PMS7003;39936;51.058;17.220;2023-02-07T15:34:37;32;24;15
54021;PMS7003;39936;51.058;17.220;2023-02-07T15:38:21;40;34;22
54021;PMS7003;39936;51.058;17.220;2023-02-07T15:41:39;30;25;15
54021;PMS7003;39936;51.058;17.220;2023-02-07T15:44:46;50;40;23
54021;PMS7003;39936;51.058;17.220;2023-02-07T15:48:25;40;33;20
54021;PMS7003;39936;51.058;17.220;2023-02-07T15:51:37;30;24;15
54021;PMS7003;39936;51.058;17.220;2023-02-07T15:54:52;36;31;18
54021;PMS7003;39936;51.058;17.220;2023-02-07T15:58:35;39;34;22
54021;PMS7003;39936;51.058;17.220;2023-02-07T16:02:19;45;35;22
54021;PMS7003;39936;51.058;17.220;2023-02-07T16:05:40;28;25;14
54021;PMS7003;39936;51.058;17.220;2023-02-07T16:08:54;44;28;18
54021;PMS7003;39936;51.058;17.220;2023-02-07T16:16:37;37;30;19
54021;PMS7003;39936;51.058;17.220;2023-02-07T16:20:00;37;30;19
54021;PMS7003;39936;51.058;17.220;2023-02-07T16:23:11;48;38;23
54021;PMS7003;39936;51.058;17.220;2023-02-07T16:26:36;36;31;21
54021;PMS7003;39936;51.058;17.220;2023-02-07T16:29:46;35;32;20
54021;PMS7003;39936;51.058;17.220;2023-02-07T16:33:03;48;38;22
54021;PMS7003;39936;51.058;17.220;2023-02-07T16:36:13;48;37;24
54021;PMS7003;39936;51.058;17.220;2023-02-07T16:39:25;54;42;25
54021;PMS7003;39936;51.058;17.220;2023-02-07T16:42:49;51;38;23
54021;PMS7003;39936;51.058;17.220;2023-02-07T16:46:25;40;34;20
54021;PMS7003;39936;51.058;17.220;2023-02-07T16:49:35;48;39;26
54021;PMS7003;39936;51.058;17.220;2023-02-07T16:52:55;50;39;23
54021;PMS7003;39936;51.058;17.220;2023-02-07T16:56:08;47;38;21
54021;PMS7003;39936;51.058;17.220;2023-02-07T16:59:23;41;33;18
54021;PMS7003;39936;51.058;17.220;2023-02-07T17:02:37;29;26;16
54021;PMS7003;39936;51.058;17.220;2023-02-07T17:05:43;32;23;15
54021;PMS7003;39936;51.058;17.220;2023-02-07T17:08:52;34;22;15
54021;PMS7003;39936;51.058;17.220;2023-02-07T17:12:08;39;34;21
54021;PMS7003;39936;51.058;17.220;2023-02-07T17:15:24;58;44;27
54021;PMS7003;39936;51.058;17.220;2023-02-07T17:18:42;61;45;27
54021;PMS7003;39936;51.058;17.220;2023-02-07T17:22:11;39;31;20
54021;PMS7003;39936;51.058;17.220;2023-02-07T17:25:32;56;40;26
54021;PMS7003;39936;51.058;17.220;2023-02-07T17:29:21;59;46;29
54021;PMS7003;39936;51.058;17.220;2023-02-07T17:33:15;37;32;23
54021;PMS7003;39936;51.058;17.220;2023-02-07T17:36:27;36;28;18
54021;PMS7003;39936;51.058;17.220;2023-02-07T17:39:37;41;28;17
54021;PMS7003;39936;51.058;17.220;2023-02-07T17:43:11;24;23;15
54021;PMS7003;39936;51.058;17.220;2023-02-07T17:46:46;45;36;22
54021;PMS7003;39936;51.058;17.220;2023-02-07T17:49:57;52;41;26
54021;PMS7003;39936;51.058;17.220;2023-02-07T17:53:17;32;29;18
54021;PMS7003;39936;51.058;17.220;2023-02-07T17:56:52;47;35;20
54021;PMS7003;39936;51.058;17.220;2023-02-07T18:03:31;30;24;15
54021;PMS7003;39936;51.058;17.220;2023-02-07T18:06:46;27;21;13
54021;PMS7003;39936;51.058;17.220;2023-02-07T18:09:59;28;22;13
54021;PMS7003;39936;51.058;17.220;2023-02-07T18:13:08;25;21;12
54021;PMS7003;39936;51.058;17.220;2023-02-07T18:16:40;29;22;12
54021;PMS7003;39936;51.058;17.220;2023-02-07T18:19:48;30;26;16
54021;PMS7003;39936;51.058;17.220;2023-02-07T18:23:03;32;26;16
54021;PMS7003;39936;51.058;17.220;2023-02-07T18:26:13;35;29;18
54021;PMS7003;39936;51.058;17.220;2023-02-07T18:29:51;47;37;23
54021;PMS7003;39936;51.058;17.220;2023-02-07T18:33:03;39;32;18
54021;PMS7003;39936;51.058;17.220;2023-02-07T18:36:24;73;53;32
54021;PMS7003;39936;51.058;17.220;2023-02-07T18:40:09;60;43;25
54021;PMS7003;39936;51.058;17.220;2023-02-07T18:43:25;59;42;26
54021;PMS7003;39936;51.058;17.220;2023-02-07T18:46:58;46;38;21
54021;PMS7003;39936;51.058;17.220;2023-02-07T18:50:13;49;39;23
54021;PMS7003;39936;51.058;17.220;2023-02-07T18:53:35;21;18;12
54021;PMS7003;39936;51.058;17.220;2023-02-07T18:56:51;43;36;21
54021;PMS7003;39936;51.058;17.220;2023-02-07T19:00:02;37;26;16
54021;PMS7003;39936;51.058;17.220;2023-02-07T19:03:19;40;29;17
54021;PMS7003;39936;51.058;17.220;2023-02-07T19:06:30;44;35;23
54021;PMS7003;39936;51.058;17.220;2023-02-07T19:09:54;59;43;24
54021;PMS7003;39936;51.058;17.220;2023-02-07T19:13:01;21;19;12
54021;PMS7003;39936;51.058;17.220;2023-02-07T19:16:30;36;29;17
54021;PMS7003;39936;51.058;17.220;2023-02-07T19:20:00;40;29;18
54021;PMS7003;39936;51.058;17.220;2023-02-07T19:23:08;29;23;17
54021;PMS7003;39936;51.058;17.220;2023-02-07T19:26:23;36;26;16
54021;PMS7003;39936;51.058;17.220;2023-02-07T19:29:58;31;27;15
54021;PMS7003;39936;51.058;17.220;2023-02-07T19:33:09;25;20;12
54021;PMS7003;39936;51.058;17.220;2023-02-07T19:36:16;33;28;17
54021;PMS7003;39936;51.058;17.220;2023-02-07T19:39:53;31;22;14
54021;PMS7003;39936;51.058;17.220;2023-02-07T19:43:03;39;33;20
54021;PMS7003;39936;51.058;17.220;2023-02-07T19:46:36;22;18;12
54021;PMS7003;39936;51.058;17.220;2023-02-07T19:50:11;34;25;15
54021;PMS7003;39936;51.058;17.220;2023-02-07T19:53:18;25;19;13
54021;PMS7003;39936;51.058;17.220;2023-02-07T19:56:29;31;26;16
54021;PMS7003;39936;51.058;17.220;2023-02-07T20:00:20;24;21;14
54021;PMS7003;39936;51.058;17.220;2023-02-07T20:03:56;35;28;17
54021;PMS7003;39936;51.058;17.220;2023-02-07T20:07:12;31;25;15
54021;PMS7003;39936;51.058;17.220;2023-02-07T20:10:25;42;30;17
54021;PMS7003;39936;51.058;17.220;2023-02-07T20:13:41;39;33;20
54021;PMS7003;39936;51.058;17.220;2023-02-07T20:17:25;38;30;19
54021;PMS7003;39936;51.058;17.220;2023-02-07T20:20:41;48;38;23
54021;PMS7003;39936;51.058;17.220;2023-02-07T20:23:53;28;23;15
54021;PMS7003;39936;51.058;17.220;2023-02-07T20:27:06;32;26;17
54021;PMS7003;39936;51.058;17.220;2023-02-07T20:30:15;28;23;16
54021;PMS7003;39936;51.058;17.220;2023-02-07T20:33:50;44;38;22
54021;PMS7003;39936;51.058;17.220;2023-02-07T20:37:04;55;41;26
54021;PMS7003;39936;51.058;17.220;2023-02-07T20:40:23;95;69;40
54021;PMS7003;39936;51.058;17.220;2023-02-07T20:43:36;39;35;20
54021;PMS7003;39936;51.058;17.220;2023-02-07T20:47:30;32;24;14
54021;PMS7003;39936;51.058;17.220;2023-02-07T20:51:02;42;29;18
54021;PMS7003;39936;51.058;17.220;2023-02-07T20:54:20;27;25;14
54021;PMS7003;39936;51.058;17.220;2023-02-07T20:57:39;61;46;28
54021;PMS7003;39936;51.058;17.220;2023-02-07T21:01:38;40;35;23
54021;PMS7003;39936;51.058;17.220;2023-02-07T21:04:47;32;25;16
54021;PMS7003;39936;51.058;17.220;2023-02-07T21:07:56;36;29;15
54021;PMS7003;39936;51.058;17.220;2023-02-07T21:11:42;35;29;20
54021;PMS7003;39936;51.058;17.220;2023-02-07T21:14:53;35;30;18
54021;PMS7003;39936;51.058;17.220;2023-02-07T21:18:22;43;32;20
54021;PMS7003;39936;51.058;17.220;2023-02-07T21:21:30;26;22;13
54021;PMS7003;39936;51.058;17.220;2023-02-07T21:24:36;35;26;17
54021;PMS7003;39936;51.058;17.220;2023-02-07T21:28:00;37;30;19
54021;PMS7003;39936;51.058;17.220;2023-02-07T21:31:18;36;28;18
54021;PMS7003;39936;51.058;17.220;2023-02-07T21:34:28;25;18;11
54021;PMS7003;39936;51.058;17.220;2023-02-07T21:37:36;36;29;19
54021;PMS7003;39936;51.058;17.220;2023-02-07T21:42:26;42;33;22
54021;PMS7003;39936;51.058;17.220;2023-02-07T21:45:34;47;37;22
54021;PMS7003;39936;51.058;17.220;2023-02-07T21:49:03;41;34;19
54021;PMS7003;39936;51.058;17.220;2023-02-07T21:52:21;50;39;22
54021;PMS7003;39936;51.058;17.220;2023-02-07T21:56:09;34;30;16
54021;PMS7003;39936;51.058;17.220;2023-02-07T21:59:45;33;26;17
54021;PMS7003;39936;51.058;17.220;2023-02-07T22:02:57;50;39;26
54021;PMS7003;39936;51.058;17.220;2023-02-07T22:06:29;47;38;23
54021;PMS7003;39936;51.058;17.220;2023-02-07T22:09:45;34;26;18
54021;PMS7003;39936;51.058;17.220;2023-02-07T22:13:00;39;34;20
54021;PMS7003;39936;51.058;17.220;2023-02-07T22:16:13;46;36;20
54021;PMS7003;39936;51.058;17.220;2023-02-07T22:19:36;57;42;26
54021;PMS7003;39936;51.058;17.220;2023-02-07T22:22:55;47;40;25
54021;PMS7003;39936;51.058;17.220;2023-02-07T22:26:09;54;40;25
54021;PMS7003;39936;51.058;17.220;2023-02-07T22:29:19;35;29;18
54021;PMS7003;39936;51.058;17.220;2023-02-07T22:32:27;41;28;16
54021;PMS7003;39936;51.058;17.220;2023-02-07T22:35:35;22;20;12
54021;PMS7003;39936;51.058;17.220;2023-02-07T22:38:48;27;22;13
54021;PMS7003;39936;51.058;17.220;2023-02-07T22:42:01;51;38;24
54021;PMS7003;39936;51.058;17.220;2023-02-07T22:45:09;38;28;17
54021;PMS7003;39936;51.058;17.220;2023-02-07T22:48:42;25;22;13
54021;PMS7003;39936;51.058;17.220;2023-02-07T22:51:57;44;39;24
54021;PMS7003;39936;51.058;17.220;2023-02-07T22:55:08;32;26;17
54021;PMS7003;39936;51.058;17.220;2023-02-07T22:58:37;32;23;17
54021;PMS7003;39936;51.058;17.220;2023-02-07T23:02:16;42;37;22
54021;PMS7003;39936;51.058;17.220;2023-02-07T23:05:20;39;33;20
54021;PMS7003;39936;51.058;17.220;2023-02-07T23:08:27;39;29;18
54021;PMS7003;39936;51.058;17.220;2023-02-07T23:12:07;35;34;20
54021;PMS7003;39936;51.058;17.220;2023-02-07T23:15:13;35;30;20
54021;PMS7003;39936;51.058;17.220;2023-02-07T23:18:24;35;30;20
54021;PMS7003;39936;51.058;17.220;2023-02-07T23:21:34;36;26;16
54021;PMS7003;39936;51.058;17.220;2023-02-07T23:24:46;50;41;25
54021;PMS7003;39936;51.058;17.220;2023-02-07T23:28:26;43;31;20
54021;PMS7003;39936;51.058;17.220;2023-02-07T23:31:59;37;34;20
54021;PMS7003;39936;51.058;17.220;2023-02-07T23:35:11;31;22;14
54021;PMS7003;39936;51.058;17.220;2023-02-07T23:38:19;43;34;22
54021;PMS7003;39936;51.058;17.220;2023-02-07T23:41:27;56;39;24
54021;PMS7003;39936;51.058;17.220;2023-02-07T23:44:40;42;31;20
54021;PMS7003;39936;51.058;17.220;2023-02-07T23:47:53;48;37;24
54021;PMS7003;39936;51.058;17.220;2023-02-07T23:51:35;43;35;22
54021;PMS7003;39936;51.058;17.220;2023-02-07T23:55:13;53;35;21
54021;PMS7003;39936;51.058;17.220;2023-02-07T23:58:51;52;42;24
